sensor_id;sensor_type;location;lat;lon;timestamp;P1;durP1;ratioP1;P2;durP2;ratioP2
61317;SDS011;47201;40.428;-8.436;2023-12-20T00:00:28;32.85;;;15.10;;
61317;SDS011;47201;40.428;-8.436;2023-12-20T00:02:29;23.90;;;14.95;;
61317;SDS011;47201;40.428;-8.436;2023-12-20T00:04:29;29.48;;;15.30;;
61317;SDS011;47201;40.428;-8.436;2023-12-20T00:06:30;29.50;;;14.25;;
61317;SDS011;47201;40.428;-8.436;2023-12-20T00:08:31;23.00;;;14.90;;
61317;SDS011;47201;40.428;-8.436;2023-12-20T00:10:31;35.45;;;23.42;;
61317;SDS011;47201;40.428;-8.436;2023-12-20T00:12:32;32.78;;;15.85;;
61317;SDS011;47201;40.428;-8.436;2023-12-20T00:14:33;29.33;;;15.55;;
61317;SDS011;47201;40.428;-8.436;2023-12-20T00:16:34;26.05;;;14.43;;
61317;SDS011;47201;40.428;-8.436;2023-12-20T00:18:34;31.15;;;15.48;;
61317;SDS011;47201;40.428;-8.436;2023-12-20T00:20:35;29.70;;;15.23;;
61317;SDS011;47201;40.428;-8.436;2023-12-20T00:22:36;32.60;;;15.18;;
61317;SDS011;47201;40.428;-8.436;2023-12-20T00:24:37;34.40;;;24.23;;
61317;SDS011;47201;40.428;-8.436;2023-12-20T00:26:38;29.45;;;14.75;;
61317;SDS011;47201;40.428;-8.436;2023-12-20T00:28:38;27.58;;;14.27;;
61317;SDS011;47201;40.428;-8.436;2023-12-20T00:30:39;30.83;;;15.98;;
61317;SDS011;47201;40.428;-8.436;2023-12-20T00:32:39;34.75;;;15.23;;
61317;SDS011;47201;40.428;-8.436;2023-12-20T00:34:46;29.92;;;14.70;;
61317;SDS011;47201;40.428;-8.436;2023-12-20T00:36:47;30.08;;;15.20;;
61317;SDS011;47201;40.428;-8.436;2023-12-20T00:38:47;30.63;;;15.73;;
61317;SDS011;47201;40.428;-8.436;2023-12-20T00:40:48;29.52;;;15.15;;
61317;SDS011;47201;40.428;-8.436;2023-12-20T00:44:50;27.83;;;13.50;;
61317;SDS011;47201;40.428;-8.436;2023-12-20T00:46:51;31.90;;;14.77;;
61317;SDS011;47201;40.428;-8.436;2023-12-20T00:48:51;26.30;;;14.23;;
61317;SDS011;47201;40.428;-8.436;2023-12-20T00:50:52;31.80;;;13.53;;
61317;SDS011;47201;40.428;-8.436;2023-12-20T00:52:53;33.20;;;13.68;;
61317;SDS011;47201;40.428;-8.436;2023-12-20T00:54:54;28.80;;;13.23;;
61317;SDS011;47201;40.428;-8.436;2023-12-20T00:56:55;25.65;;;13.63;;
61317;SDS011;47201;40.428;-8.436;2023-12-20T00:58:56;31.13;;;14.03;;
61317;SDS011;47201;40.428;-8.436;2023-12-20T01:00:56;29.35;;;14.32;;
61317;SDS011;47201;40.428;-8.436;2023-12-20T01:04:58;25.10;;;12.57;;
61317;SDS011;47201;40.428;-8.436;2023-12-20T01:06:59;37.83;;;21.13;;
61317;SDS011;47201;40.428;-8.436;2023-12-20T01:09:00;32.30;;;13.75;;
61317;SDS011;47201;40.428;-8.436;2023-12-20T01:11:00;29.40;;;14.40;;
61317;SDS011;47201;40.428;-8.436;2023-12-20T01:13:05;24.90;;;12.75;;
61317;SDS011;47201;40.428;-8.436;2023-12-20T01:15:05;28.67;;;12.98;;
61317;SDS011;47201;40.428;-8.436;2023-12-20T01:17:06;19.42;;;12.77;;
61317;SDS011;47201;40.428;-8.436;2023-12-20T01:19:07;31.95;;;13.30;;
61317;SDS011;47201;40.428;-8.436;2023-12-20T01:21:08;34.92;;;12.45;;
61317;SDS011;47201;40.428;-8.436;2023-12-20T01:23:08;28.85;;;13.15;;
61317;SDS011;47201;40.428;-8.436;2023-12-20T01:25:09;27.20;;;12.60;;
61317;SDS011;47201;40.428;-8.436;2023-12-20T01:27:10;31.75;;;13.90;;
61317;SDS011;47201;40.428;-8.436;2023-12-20T01:29:10;34.72;;;19.63;;
61317;SDS011;47201;40.428;-8.436;2023-12-20T01:31:11;33.05;;;13.63;;
61317;SDS011;47201;40.428;-8.436;2023-12-20T01:33:12;25.45;;;12.52;;
61317;SDS011;47201;40.428;-8.436;2023-12-20T01:35:12;40.42;;;13.68;;
61317;SDS011;47201;40.428;-8.436;2023-12-20T01:37:13;36.28;;;13.65;;
61317;SDS011;47201;40.428;-8.436;2023-12-20T01:39:14;28.52;;;12.60;;
61317;SDS011;47201;40.428;-8.436;2023-12-20T01:41:15;43.83;;;13.20;;
61317;SDS011;47201;40.428;-8.436;2023-12-20T01:43:16;26.75;;;12.52;;
61317;SDS011;47201;40.428;-8.436;2023-12-20T01:45:16;29.83;;;13.30;;
61317;SDS011;47201;40.428;-8.436;2023-12-20T01:47:17;24.02;;;13.52;;
61317;SDS011;47201;40.428;-8.436;2023-12-20T01:49:18;38.53;;;21.40;;
61317;SDS011;47201;40.428;-8.436;2023-12-20T01:51:19;32.40;;;12.48;;
61317;SDS011;47201;40.428;-8.436;2023-12-20T01:53:21;43.05;;;14.38;;
61317;SDS011;47201;40.428;-8.436;2023-12-20T01:55:24;32.78;;;14.38;;
61317;SDS011;47201;40.428;-8.436;2023-12-20T01:59:29;39.00;;;23.15;;
61317;SDS011;47201;40.428;-8.436;2023-12-20T02:01:31;33.83;;;15.65;;
61317;SDS011;47201;40.428;-8.436;2023-12-20T02:03:32;31.50;;;16.85;;
61317;SDS011;47201;40.428;-8.436;2023-12-20T02:05:33;34.30;;;16.58;;
61317;SDS011;47201;40.428;-8.436;2023-12-20T02:07:36;40.65;;;16.77;;
61317;SDS011;47201;40.428;-8.436;2023-12-20T02:09:36;30.52;;;16.20;;
61317;SDS011;47201;40.428;-8.436;2023-12-20T02:11:38;29.48;;;15.98;;
61317;SDS011;47201;40.428;-8.436;2023-12-20T02:13:39;37.58;;;17.45;;
61317;SDS011;47201;40.428;-8.436;2023-12-20T02:15:40;46.63;;;17.17;;
61317;SDS011;47201;40.428;-8.436;2023-12-20T02:17:42;44.03;;;16.88;;
61317;SDS011;47201;40.428;-8.436;2023-12-20T02:19:45;38.00;;;16.38;;
61317;SDS011;47201;40.428;-8.436;2023-12-20T02:21:46;37.28;;;18.52;;
61317;SDS011;47201;40.428;-8.436;2023-12-20T02:23:46;44.57;;;16.90;;
61317;SDS011;47201;40.428;-8.436;2023-12-20T02:25:47;52.50;;;28.77;;
61317;SDS011;47201;40.428;-8.436;2023-12-20T02:27:48;36.63;;;15.77;;
61317;SDS011;47201;40.428;-8.436;2023-12-20T02:29:50;46.80;;;17.52;;
61317;SDS011;47201;40.428;-8.436;2023-12-20T02:31:51;39.13;;;18.13;;
61317;SDS011;47201;40.428;-8.436;2023-12-20T02:33:53;35.78;;;16.55;;
61317;SDS011;47201;40.428;-8.436;2023-12-20T02:35:53;47.72;;;19.05;;
61317;SDS011;47201;40.428;-8.436;2023-12-20T02:37:54;37.53;;;18.58;;
61317;SDS011;47201;40.428;-8.436;2023-12-20T02:39:55;35.23;;;18.37;;
61317;SDS011;47201;40.428;-8.436;2023-12-20T02:41:55;39.60;;;18.93;;
61317;SDS011;47201;40.428;-8.436;2023-12-20T02:43:59;31.85;;;19.48;;
61317;SDS011;47201;40.428;-8.436;2023-12-20T02:46:00;35.80;;;19.58;;
61317;SDS011;47201;40.428;-8.436;2023-12-20T02:48:01;36.35;;;20.83;;
61317;SDS011;47201;40.428;-8.436;2023-12-20T02:50:02;39.83;;;20.90;;
61317;SDS011;47201;40.428;-8.436;2023-12-20T02:52:03;43.20;;;22.00;;
61317;SDS011;47201;40.428;-8.436;2023-12-20T02:54:04;51.40;;;21.48;;
61317;SDS011;47201;40.428;-8.436;2023-12-20T02:58:06;36.33;;;18.47;;
61317;SDS011;47201;40.428;-8.436;2023-12-20T03:00:07;37.13;;;20.47;;
61317;SDS011;47201;40.428;-8.436;2023-12-20T03:02:09;38.83;;;20.67;;
61317;SDS011;47201;40.428;-8.436;2023-12-20T03:04:10;34.90;;;20.58;;
61317;SDS011;47201;40.428;-8.436;2023-12-20T03:06:11;36.65;;;21.80;;
61317;SDS011;47201;40.428;-8.436;2023-12-20T03:08:11;47.93;;;19.40;;
61317;SDS011;47201;40.428;-8.436;2023-12-20T03:10:12;38.55;;;20.13;;
61317;SDS011;47201;40.428;-8.436;2023-12-20T03:12:13;31.13;;;19.42;;
61317;SDS011;47201;40.428;-8.436;2023-12-20T03:14:13;42.73;;;21.80;;
61317;SDS011;47201;40.428;-8.436;2023-12-20T03:16:14;35.87;;;20.90;;
61317;SDS011;47201;40.428;-8.436;2023-12-20T03:18:16;42.67;;;20.67;;
61317;SDS011;47201;40.428;-8.436;2023-12-20T03:20:18;38.15;;;20.90;;
61317;SDS011;47201;40.428;-8.436;2023-12-20T03:22:18;36.63;;;20.42;;
61317;SDS011;47201;40.428;-8.436;2023-12-20T03:24:19;39.00;;;20.67;;
61317;SDS011;47201;40.428;-8.436;2023-12-20T03:26:20;36.33;;;21.63;;
61317;SDS011;47201;40.428;-8.436;2023-12-20T03:28:22;41.45;;;22.42;;
61317;SDS011;47201;40.428;-8.436;2023-12-20T03:30:28;42.67;;;23.05;;
61317;SDS011;47201;40.428;-8.436;2023-12-20T03:32:29;40.33;;;21.73;;
61317;SDS011;47201;40.428;-8.436;2023-12-20T03:34:29;38.90;;;22.15;;
61317;SDS011;47201;40.428;-8.436;2023-12-20T03:36:30;44.42;;;22.63;;
61317;SDS011;47201;40.428;-8.436;2023-12-20T03:38:31;47.33;;;24.00;;
61317;SDS011;47201;40.428;-8.436;2023-12-20T03:40:31;42.27;;;24.67;;
61317;SDS011;47201;40.428;-8.436;2023-12-20T03:42:32;53.50;;;25.02;;
61317;SDS011;47201;40.428;-8.436;2023-12-20T03:44:33;44.08;;;25.35;;
61317;SDS011;47201;40.428;-8.436;2023-12-20T03:46:34;48.97;;;26.10;;
61317;SDS011;47201;40.428;-8.436;2023-12-20T03:48:35;41.77;;;25.30;;
61317;SDS011;47201;40.428;-8.436;2023-12-20T03:50:35;43.78;;;25.13;;
61317;SDS011;47201;40.428;-8.436;2023-12-20T03:52:36;47.90;;;25.93;;
61317;SDS011;47201;40.428;-8.436;2023-12-20T03:54:37;61.80;;;27.70;;
61317;SDS011;47201;40.428;-8.436;2023-12-20T03:56:37;46.90;;;24.95;;
61317;SDS011;47201;40.428;-8.436;2023-12-20T03:58:38;41.40;;;24.25;;
61317;SDS011;47201;40.428;-8.436;2023-12-20T04:00:39;54.53;;;26.03;;
61317;SDS011;47201;40.428;-8.436;2023-12-20T04:02:40;57.03;;;25.30;;
61317;SDS011;47201;40.428;-8.436;2023-12-20T04:04:41;45.67;;;24.88;;
61317;SDS011;47201;40.428;-8.436;2023-12-20T04:06:42;48.88;;;26.25;;
61317;SDS011;47201;40.428;-8.436;2023-12-20T04:08:43;46.67;;;28.90;;
61317;SDS011;47201;40.428;-8.436;2023-12-20T04:10:44;46.40;;;25.67;;
61317;SDS011;47201;40.428;-8.436;2023-12-20T04:12:44;41.45;;;24.75;;
61317;SDS011;47201;40.428;-8.436;2023-12-20T04:14:45;47.27;;;24.10;;
61317;SDS011;47201;40.428;-8.436;2023-12-20T04:16:46;42.23;;;22.80;;
61317;SDS011;47201;40.428;-8.436;2023-12-20T04:18:46;45.77;;;25.57;;
61317;SDS011;47201;40.428;-8.436;2023-12-20T04:20:47;43.93;;;24.90;;
61317;SDS011;47201;40.428;-8.436;2023-12-20T04:22:48;39.03;;;24.02;;
61317;SDS011;47201;40.428;-8.436;2023-12-20T04:24:48;44.80;;;23.17;;
61317;SDS011;47201;40.428;-8.436;2023-12-20T04:26:49;47.70;;;24.83;;
61317;SDS011;47201;40.428;-8.436;2023-12-20T04:28:50;54.33;;;24.58;;
61317;SDS011;47201;40.428;-8.436;2023-12-20T04:30:50;40.17;;;23.37;;
61317;SDS011;47201;40.428;-8.436;2023-12-20T04:32:51;55.33;;;29.53;;
61317;SDS011;47201;40.428;-8.436;2023-12-20T04:34:51;43.93;;;29.70;;
61317;SDS011;47201;40.428;-8.436;2023-12-20T04:36:52;36.67;;;23.10;;
61317;SDS011;47201;40.428;-8.436;2023-12-20T04:38:53;36.38;;;23.88;;
61317;SDS011;47201;40.428;-8.436;2023-12-20T04:40:54;39.30;;;23.85;;
61317;SDS011;47201;40.428;-8.436;2023-12-20T04:42:55;35.63;;;22.43;;
61317;SDS011;47201;40.428;-8.436;2023-12-20T04:44:55;48.13;;;25.77;;
61317;SDS011;47201;40.428;-8.436;2023-12-20T04:46:59;47.03;;;23.30;;
61317;SDS011;47201;40.428;-8.436;2023-12-20T04:49:00;37.08;;;22.02;;
61317;SDS011;47201;40.428;-8.436;2023-12-20T04:51:01;41.33;;;22.33;;
61317;SDS011;47201;40.428;-8.436;2023-12-20T04:53:01;53.15;;;24.27;;
61317;SDS011;47201;40.428;-8.436;2023-12-20T04:55:02;51.22;;;24.98;;
61317;SDS011;47201;40.428;-8.436;2023-12-20T04:57:03;39.88;;;23.60;;
61317;SDS011;47201;40.428;-8.436;2023-12-20T04:59:04;57.42;;;25.85;;
61317;SDS011;47201;40.428;-8.436;2023-12-20T05:01:05;45.28;;;24.05;;
61317;SDS011;47201;40.428;-8.436;2023-12-20T05:03:07;61.83;;;42.17;;
61317;SDS011;47201;40.428;-8.436;2023-12-20T05:05:08;41.60;;;23.90;;
61317;SDS011;47201;40.428;-8.436;2023-12-20T05:07:08;47.97;;;26.00;;
61317;SDS011;47201;40.428;-8.436;2023-12-20T05:09:09;52.47;;;26.23;;
61317;SDS011;47201;40.428;-8.436;2023-12-20T05:11:10;46.33;;;25.70;;
61317;SDS011;47201;40.428;-8.436;2023-12-20T05:13:10;50.47;;;24.55;;
61317;SDS011;47201;40.428;-8.436;2023-12-20T05:15:11;59.38;;;27.67;;
61317;SDS011;47201;40.428;-8.436;2023-12-20T05:17:12;52.90;;;26.33;;
61317;SDS011;47201;40.428;-8.436;2023-12-20T05:19:12;62.28;;;28.05;;
61317;SDS011;47201;40.428;-8.436;2023-12-20T05:23:14;48.47;;;25.27;;
61317;SDS011;47201;40.428;-8.436;2023-12-20T05:25:15;66.55;;;27.42;;
61317;SDS011;47201;40.428;-8.436;2023-12-20T05:27:16;53.25;;;28.77;;
61317;SDS011;47201;40.428;-8.436;2023-12-20T05:29:16;67.53;;;30.20;;
61317;SDS011;47201;40.428;-8.436;2023-12-20T05:31:17;61.35;;;30.42;;
61317;SDS011;47201;40.428;-8.436;2023-12-20T05:33:18;61.20;;;30.73;;
61317;SDS011;47201;40.428;-8.436;2023-12-20T05:35:18;81.23;;;31.10;;
61317;SDS011;47201;40.428;-8.436;2023-12-20T05:37:19;61.75;;;30.60;;
61317;SDS011;47201;40.428;-8.436;2023-12-20T05:39:20;59.65;;;29.20;;
61317;SDS011;47201;40.428;-8.436;2023-12-20T05:41:21;54.25;;;29.02;;
61317;SDS011;47201;40.428;-8.436;2023-12-20T05:43:22;76.85;;;32.00;;
61317;SDS011;47201;40.428;-8.436;2023-12-20T05:45:22;60.20;;;29.38;;
61317;SDS011;47201;40.428;-8.436;2023-12-20T05:47:23;54.60;;;28.17;;
61317;SDS011;47201;40.428;-8.436;2023-12-20T05:49:24;65.90;;;30.53;;
61317;SDS011;47201;40.428;-8.436;2023-12-20T05:51:24;77.23;;;32.87;;
61317;SDS011;47201;40.428;-8.436;2023-12-20T05:53:25;77.45;;;30.70;;
61317;SDS011;47201;40.428;-8.436;2023-12-20T05:55:26;88.88;;;34.30;;
61317;SDS011;47201;40.428;-8.436;2023-12-20T05:57:29;113.82;;;60.78;;
61317;SDS011;47201;40.428;-8.436;2023-12-20T05:59:30;91.20;;;33.97;;
61317;SDS011;47201;40.428;-8.436;2023-12-20T06:01:30;86.90;;;35.28;;
61317;SDS011;47201;40.428;-8.436;2023-12-20T06:03:31;99.18;;;35.95;;
61317;SDS011;47201;40.428;-8.436;2023-12-20T06:05:32;71.90;;;33.15;;
61317;SDS011;47201;40.428;-8.436;2023-12-20T06:07:32;96.97;;;36.87;;
61317;SDS011;47201;40.428;-8.436;2023-12-20T06:09:33;177.85;;;68.18;;
61317;SDS011;47201;40.428;-8.436;2023-12-20T06:11:34;73.22;;;35.42;;
61317;SDS011;47201;40.428;-8.436;2023-12-20T06:13:34;84.55;;;34.55;;
61317;SDS011;47201;40.428;-8.436;2023-12-20T06:15:35;66.38;;;32.60;;
61317;SDS011;47201;40.428;-8.436;2023-12-20T06:17:36;66.37;;;33.97;;
61317;SDS011;47201;40.428;-8.436;2023-12-20T06:19:37;86.67;;;33.30;;
61317;SDS011;47201;40.428;-8.436;2023-12-20T06:21:37;81.55;;;32.58;;
61317;SDS011;47201;40.428;-8.436;2023-12-20T06:23:38;77.13;;;33.77;;
61317;SDS011;47201;40.428;-8.436;2023-12-20T06:25:39;95.57;;;38.40;;
61317;SDS011;47201;40.428;-8.436;2023-12-20T06:27:40;135.83;;;68.63;;
61317;SDS011;47201;40.428;-8.436;2023-12-20T06:29:41;70.75;;;33.72;;
61317;SDS011;47201;40.428;-8.436;2023-12-20T06:31:44;79.72;;;34.55;;
61317;SDS011;47201;40.428;-8.436;2023-12-20T06:33:45;82.05;;;36.22;;
61317;SDS011;47201;40.428;-8.436;2023-12-20T06:35:45;78.03;;;34.90;;
61317;SDS011;47201;40.428;-8.436;2023-12-20T06:37:46;80.90;;;36.07;;
61317;SDS011;47201;40.428;-8.436;2023-12-20T06:39:46;78.33;;;33.93;;
61317;SDS011;47201;40.428;-8.436;2023-12-20T06:41:47;77.22;;;34.50;;
61317;SDS011;47201;40.428;-8.436;2023-12-20T06:43:48;84.00;;;34.55;;
61317;SDS011;47201;40.428;-8.436;2023-12-20T06:45:48;71.63;;;34.63;;
61317;SDS011;47201;40.428;-8.436;2023-12-20T06:47:49;138.53;;;69.00;;
61317;SDS011;47201;40.428;-8.436;2023-12-20T06:49:50;154.67;;;71.77;;
61317;SDS011;47201;40.428;-8.436;2023-12-20T06:51:50;114.88;;;40.72;;
61317;SDS011;47201;40.428;-8.436;2023-12-20T06:53:52;96.15;;;37.35;;
61317;SDS011;47201;40.428;-8.436;2023-12-20T06:55:53;113.00;;;38.30;;
61317;SDS011;47201;40.428;-8.436;2023-12-20T06:57:54;100.30;;;37.35;;
61317;SDS011;47201;40.428;-8.436;2023-12-20T06:59:54;113.23;;;39.93;;
61317;SDS011;47201;40.428;-8.436;2023-12-20T07:01:55;97.40;;;37.38;;
61317;SDS011;47201;40.428;-8.436;2023-12-20T07:03:59;91.85;;;37.00;;
61317;SDS011;47201;40.428;-8.436;2023-12-20T07:05:59;91.07;;;35.67;;
61317;SDS011;47201;40.428;-8.436;2023-12-20T07:08:00;85.85;;;34.05;;
61317;SDS011;47201;40.428;-8.436;2023-12-20T07:10:01;78.05;;;32.15;;
61317;SDS011;47201;40.428;-8.436;2023-12-20T07:12:01;87.38;;;33.33;;
61317;SDS011;47201;40.428;-8.436;2023-12-20T07:14:02;93.22;;;33.75;;
61317;SDS011;47201;40.428;-8.436;2023-12-20T07:16:03;130.07;;;63.78;;
61317;SDS011;47201;40.428;-8.436;2023-12-20T07:18:04;71.50;;;30.52;;
61317;SDS011;47201;40.428;-8.436;2023-12-20T07:20:06;84.95;;;31.35;;
61317;SDS011;47201;40.428;-8.436;2023-12-20T07:22:10;63.03;;;28.85;;
61317;SDS011;47201;40.428;-8.436;2023-12-20T07:24:11;69.78;;;29.33;;
61317;SDS011;47201;40.428;-8.436;2023-12-20T07:26:12;70.03;;;29.23;;
61317;SDS011;47201;40.428;-8.436;2023-12-20T07:28:13;56.20;;;27.10;;
61317;SDS011;47201;40.428;-8.436;2023-12-20T07:30:13;61.08;;;26.60;;
61317;SDS011;47201;40.428;-8.436;2023-12-20T07:32:14;73.40;;;28.17;;
61317;SDS011;47201;40.428;-8.436;2023-12-20T07:34:15;67.03;;;29.08;;
61317;SDS011;47201;40.428;-8.436;2023-12-20T07:36:15;85.57;;;48.22;;
61317;SDS011;47201;40.428;-8.436;2023-12-20T07:38:16;62.10;;;27.17;;
61317;SDS011;47201;40.428;-8.436;2023-12-20T07:40:17;53.85;;;25.55;;
61317;SDS011;47201;40.428;-8.436;2023-12-20T07:42:17;56.63;;;25.73;;
61317;SDS011;47201;40.428;-8.436;2023-12-20T07:44:18;44.67;;;25.05;;
61317;SDS011;47201;40.428;-8.436;2023-12-20T07:46:19;63.38;;;25.42;;
61317;SDS011;47201;40.428;-8.436;2023-12-20T07:48:22;47.83;;;24.90;;
61317;SDS011;47201;40.428;-8.436;2023-12-20T07:50:23;49.65;;;24.23;;
61317;SDS011;47201;40.428;-8.436;2023-12-20T07:52:24;36.47;;;21.92;;
61317;SDS011;47201;40.428;-8.436;2023-12-20T07:54:26;70.97;;;41.65;;
61317;SDS011;47201;40.428;-8.436;2023-12-20T07:56:29;49.13;;;25.13;;
61317;SDS011;47201;40.428;-8.436;2023-12-20T07:58:30;64.20;;;25.48;;
61317;SDS011;47201;40.428;-8.436;2023-12-20T08:00:31;43.92;;;23.25;;
61317;SDS011;47201;40.428;-8.436;2023-12-20T08:02:32;72.82;;;40.88;;
61317;SDS011;47201;40.428;-8.436;2023-12-20T08:04:32;73.10;;;43.95;;
61317;SDS011;47201;40.428;-8.436;2023-12-20T08:06:33;48.95;;;22.63;;
61317;SDS011;47201;40.428;-8.436;2023-12-20T08:08:34;46.70;;;23.85;;
61317;SDS011;47201;40.428;-8.436;2023-12-20T08:10:35;42.90;;;21.85;;
61317;SDS011;47201;40.428;-8.436;2023-12-20T08:12:35;64.78;;;38.58;;
61317;SDS011;47201;40.428;-8.436;2023-12-20T08:14:36;74.60;;;43.70;;
61317;SDS011;47201;40.428;-8.436;2023-12-20T08:16:37;67.65;;;29.52;;
61317;SDS011;47201;40.428;-8.436;2023-12-20T08:18:38;59.45;;;28.58;;
61317;SDS011;47201;40.428;-8.436;2023-12-20T08:20:38;87.38;;;47.28;;
61317;SDS011;47201;40.428;-8.436;2023-12-20T08:22:39;72.97;;;44.83;;
61317;SDS011;47201;40.428;-8.436;2023-12-20T08:24:40;56.88;;;27.08;;
61317;SDS011;47201;40.428;-8.436;2023-12-20T08:26:40;50.63;;;26.63;;
61317;SDS011;47201;40.428;-8.436;2023-12-20T08:28:41;51.63;;;27.33;;
61317;SDS011;47201;40.428;-8.436;2023-12-20T08:30:42;51.72;;;27.58;;
61317;SDS011;47201;40.428;-8.436;2023-12-20T08:32:43;51.88;;;27.55;;
61317;SDS011;47201;40.428;-8.436;2023-12-20T08:34:43;47.90;;;27.30;;
61317;SDS011;47201;40.428;-8.436;2023-12-20T08:36:44;49.85;;;27.15;;
61317;SDS011;47201;40.428;-8.436;2023-12-20T08:38:45;46.30;;;27.13;;
61317;SDS011;47201;40.428;-8.436;2023-12-20T08:40:46;41.90;;;26.27;;
61317;SDS011;47201;40.428;-8.436;2023-12-20T08:42:46;48.63;;;26.02;;
61317;SDS011;47201;40.428;-8.436;2023-12-20T08:44:47;45.75;;;26.83;;
61317;SDS011;47201;40.428;-8.436;2023-12-20T08:46:48;43.67;;;25.45;;
61317;SDS011;47201;40.428;-8.436;2023-12-20T08:48:48;43.28;;;25.10;;
61317;SDS011;47201;40.428;-8.436;2023-12-20T08:50:49;45.53;;;25.73;;
61317;SDS011;47201;40.428;-8.436;2023-12-20T08:52:52;43.47;;;25.75;;
61317;SDS011;47201;40.428;-8.436;2023-12-20T08:54:53;40.45;;;24.05;;
61317;SDS011;47201;40.428;-8.436;2023-12-20T08:56:55;45.47;;;26.85;;
61317;SDS011;47201;40.428;-8.436;2023-12-20T08:58:58;42.67;;;24.48;;
61317;SDS011;47201;40.428;-8.436;2023-12-20T09:00:59;41.63;;;24.45;;
61317;SDS011;47201;40.428;-8.436;2023-12-20T09:02:59;43.72;;;24.73;;
61317;SDS011;47201;40.428;-8.436;2023-12-20T09:05:01;42.28;;;25.13;;
61317;SDS011;47201;40.428;-8.436;2023-12-20T09:07:02;41.05;;;24.15;;
61317;SDS011;47201;40.428;-8.436;2023-12-20T09:09:03;45.25;;;34.95;;
61317;SDS011;47201;40.428;-8.436;2023-12-20T09:11:04;43.78;;;25.15;;
61317;SDS011;47201;40.428;-8.436;2023-12-20T09:13:05;47.80;;;24.70;;
61317;SDS011;47201;40.428;-8.436;2023-12-20T09:15:06;42.28;;;23.65;;
61317;SDS011;47201;40.428;-8.436;2023-12-20T09:17:07;43.58;;;32.10;;
61317;SDS011;47201;40.428;-8.436;2023-12-20T09:19:09;36.03;;;21.23;;
61317;SDS011;47201;40.428;-8.436;2023-12-20T09:21:09;32.45;;;20.40;;
61317;SDS011;47201;40.428;-8.436;2023-12-20T09:23:10;32.50;;;18.73;;
61317;SDS011;47201;40.428;-8.436;2023-12-20T09:25:11;36.05;;;25.88;;
61317;SDS011;47201;40.428;-8.436;2023-12-20T09:27:12;35.05;;;21.10;;
61317;SDS011;47201;40.428;-8.436;2023-12-20T09:29:13;34.80;;;27.35;;
61317;SDS011;47201;40.428;-8.436;2023-12-20T09:31:15;41.30;;;28.63;;
61317;SDS011;47201;40.428;-8.436;2023-12-20T09:33:16;35.65;;;26.13;;
61317;SDS011;47201;40.428;-8.436;2023-12-20T09:35:17;32.92;;;26.90;;
61317;SDS011;47201;40.428;-8.436;2023-12-20T09:37:17;33.22;;;25.17;;
61317;SDS011;47201;40.428;-8.436;2023-12-20T09:39:18;32.38;;;26.73;;
61317;SDS011;47201;40.428;-8.436;2023-12-20T09:41:20;32.17;;;26.27;;
61317;SDS011;47201;40.428;-8.436;2023-12-20T09:43:21;35.70;;;26.00;;
61317;SDS011;47201;40.428;-8.436;2023-12-20T09:45:25;34.15;;;26.50;;
61317;SDS011;47201;40.428;-8.436;2023-12-20T09:47:25;34.08;;;23.77;;
61317;SDS011;47201;40.428;-8.436;2023-12-20T09:49:27;35.22;;;22.60;;
61317;SDS011;47201;40.428;-8.436;2023-12-20T09:51:28;27.00;;;23.52;;
61317;SDS011;47201;40.428;-8.436;2023-12-20T09:53:30;26.27;;;23.10;;
61317;SDS011;47201;40.428;-8.436;2023-12-20T09:55:33;31.08;;;23.73;;
61317;SDS011;47201;40.428;-8.436;2023-12-20T09:57:34;32.85;;;22.13;;
61317;SDS011;47201;40.428;-8.436;2023-12-20T09:59:35;29.75;;;23.80;;
61317;SDS011;47201;40.428;-8.436;2023-12-20T10:01:35;36.70;;;22.85;;
61317;SDS011;47201;40.428;-8.436;2023-12-20T10:03:37;31.85;;;23.85;;
61317;SDS011;47201;40.428;-8.436;2023-12-20T10:05:41;33.65;;;23.58;;
61317;SDS011;47201;40.428;-8.436;2023-12-20T10:07:43;26.10;;;21.70;;
61317;SDS011;47201;40.428;-8.436;2023-12-20T10:09:44;35.05;;;21.98;;
61317;SDS011;47201;40.428;-8.436;2023-12-20T10:11:45;28.27;;;21.92;;
61317;SDS011;47201;40.428;-8.436;2023-12-20T10:13:47;28.38;;;21.00;;
61317;SDS011;47201;40.428;-8.436;2023-12-20T10:15:49;28.95;;;19.83;;
61317;SDS011;47201;40.428;-8.436;2023-12-20T10:17:50;32.25;;;21.55;;
61317;SDS011;47201;40.428;-8.436;2023-12-20T10:19:50;24.90;;;19.48;;
61317;SDS011;47201;40.428;-8.436;2023-12-20T10:21:52;33.30;;;19.45;;
61317;SDS011;47201;40.428;-8.436;2023-12-20T10:26:00;28.80;;;20.92;;
61317;SDS011;47201;40.428;-8.436;2023-12-20T10:28:14;23.77;;;18.73;;
61317;SDS011;47201;40.428;-8.436;2023-12-20T10:30:19;27.63;;;18.92;;
61317;SDS011;47201;40.428;-8.436;2023-12-20T10:34:24;26.60;;;19.48;;
61317;SDS011;47201;40.428;-8.436;2023-12-20T10:38:27;27.55;;;18.30;;
61317;SDS011;47201;40.428;-8.436;2023-12-20T10:40:29;19.50;;;15.77;;
61317;SDS011;47201;40.428;-8.436;2023-12-20T10:44:30;20.58;;;15.10;;
61317;SDS011;47201;40.428;-8.436;2023-12-20T10:48:33;13.02;;;11.65;;
61317;SDS011;47201;40.428;-8.436;2023-12-20T10:50:35;14.07;;;12.55;;
61317;SDS011;47201;40.428;-8.436;2023-12-20T10:52:38;11.75;;;10.60;;
61317;SDS011;47201;40.428;-8.436;2023-12-20T10:54:41;13.13;;;11.68;;
61317;SDS011;47201;40.428;-8.436;2023-12-20T10:58:42;13.70;;;11.48;;
61317;SDS011;47201;40.428;-8.436;2023-12-20T11:00:44;11.88;;;10.70;;
61317;SDS011;47201;40.428;-8.436;2023-12-20T11:02:48;11.48;;;10.27;;
61317;SDS011;47201;40.428;-8.436;2023-12-20T11:04:52;12.15;;;10.95;;
61317;SDS011;47201;40.428;-8.436;2023-12-20T11:07:06;13.57;;;12.18;;
61317;SDS011;47201;40.428;-8.436;2023-12-20T11:09:26;12.20;;;11.00;;
61317;SDS011;47201;40.428;-8.436;2023-12-20T11:11:34;11.30;;;10.20;;
61317;SDS011;47201;40.428;-8.436;2023-12-20T11:13:44;11.43;;;10.43;;
61317;SDS011;47201;40.428;-8.436;2023-12-20T11:15:54;13.57;;;12.13;;
61317;SDS011;47201;40.428;-8.436;2023-12-20T11:22:02;12.98;;;11.45;;
61317;SDS011;47201;40.428;-8.436;2023-12-20T11:24:04;15.48;;;12.32;;
61317;SDS011;47201;40.428;-8.436;2023-12-20T11:26:05;12.93;;;11.57;;
61317;SDS011;47201;40.428;-8.436;2023-12-20T11:30:09;12.38;;;11.07;;
61317;SDS011;47201;40.428;-8.436;2023-12-20T11:34:27;18.35;;;13.30;;
61317;SDS011;47201;40.428;-8.436;2023-12-20T11:36:32;17.70;;;14.55;;
61317;SDS011;47201;40.428;-8.436;2023-12-20T11:38:39;16.88;;;14.48;;
61317;SDS011;47201;40.428;-8.436;2023-12-20T11:41:00;16.50;;;14.80;;
61317;SDS011;47201;40.428;-8.436;2023-12-20T11:43:04;16.27;;;14.57;;
61317;SDS011;47201;40.428;-8.436;2023-12-20T11:45:09;16.58;;;14.57;;
61317;SDS011;47201;40.428;-8.436;2023-12-20T11:47:10;16.33;;;14.60;;
61317;SDS011;47201;40.428;-8.436;2023-12-20T11:49:13;16.13;;;14.43;;
61317;SDS011;47201;40.428;-8.436;2023-12-20T11:51:14;17.92;;;14.38;;
61317;SDS011;47201;40.428;-8.436;2023-12-20T11:53:15;17.40;;;14.00;;
61317;SDS011;47201;40.428;-8.436;2023-12-20T11:55:16;14.55;;;13.07;;
61317;SDS011;47201;40.428;-8.436;2023-12-20T11:57:16;16.88;;;14.40;;
61317;SDS011;47201;40.428;-8.436;2023-12-20T11:59:17;18.45;;;16.20;;
61317;SDS011;47201;40.428;-8.436;2023-12-20T12:01:19;18.67;;;15.85;;
61317;SDS011;47201;40.428;-8.436;2023-12-20T12:03:21;19.33;;;16.15;;
61317;SDS011;47201;40.428;-8.436;2023-12-20T12:05:21;18.77;;;16.27;;
61317;SDS011;47201;40.428;-8.436;2023-12-20T12:07:22;23.65;;;17.98;;
61317;SDS011;47201;40.428;-8.436;2023-12-20T12:09:23;18.50;;;16.65;;